sensor_id;sensor_type;location;lat;lon;timestamp;temperature;humidity
27540;DHT22;15906;52.046;4.724;2023-04-01T00:01:59;9.70;99.90
27540;DHT22;15906;52.046;4.724;2023-04-01T00:04:24;9.80;99.90
27540;DHT22;15906;52.046;4.724;2023-04-01T00:06:50;9.70;99.90
27540;DHT22;15906;52.046;4.724;2023-04-01T00:09:17;9.80;99.90
27540;DHT22;15906;52.046;4.724;2023-04-01T00:11:43;9.60;99.90
27540;DHT22;15906;52.046;4.724;2023-04-01T00:14:09;9.70;99.90
27540;DHT22;15906;52.046;4.724;2023-04-01T00:16:35;9.60;99.90
27540;DHT22;15906;52.046;4.724;2023-04-01T00:19:01;9.70;99.90
27540;DHT22;15906;52.046;4.724;2023-04-01T00:21:27;9.60;99.90
27540;DHT22;15906;52.046;4.724;2023-04-01T00:23:53;9.60;99.90
27540;DHT22;15906;52.046;4.724;2023-04-01T00:26:19;9.60;99.90
27540;DHT22;15906;52.046;4.724;2023-04-01T00:28:46;9.50;99.90
27540;DHT22;15906;52.046;4.724;2023-04-01T00:31:12;9.50;99.90
27540;DHT22;15906;52.046;4.724;2023-04-01T00:33:39;9.50;99.90
27540;DHT22;15906;52.046;4.724;2023-04-01T00:36:17;9.50;99.90
27540;DHT22;15906;52.046;4.724;2023-04-01T00:38:43;9.50;99.90
27540;DHT22;15906;52.046;4.724;2023-04-01T00:41:10;9.50;99.90
27540;DHT22;15906;52.046;4.724;2023-04-01T00:43:41;9.50;99.90
27540;DHT22;15906;52.046;4.724;2023-04-01T00:46:07;9.50;99.90
27540;DHT22;15906;52.046;4.724;2023-04-01T00:48:39;9.50;99.90
27540;DHT22;15906;52.046;4.724;2023-04-01T00:51:14;9.50;99.90
27540;DHT22;15906;52.046;4.724;2023-04-01T00:53:47;9.40;99.90
27540;DHT22;15906;52.046;4.724;2023-04-01T00:56:17;9.40;99.90
27540;DHT22;15906;52.046;4.724;2023-04-01T00:58:49;9.50;99.90
27540;DHT22;15906;52.046;4.724;2023-04-01T01:01:16;9.40;99.90
27540;DHT22;15906;52.046;4.724;2023-04-01T01:03:42;9.50;99.90
27540;DHT22;15906;52.046;4.724;2023-04-01T01:31:24;9.30;99.90
27540;DHT22;15906;52.046;4.724;2023-04-01T01:34:16;9.30;99.90
27540;DHT22;15906;52.046;4.724;2023-04-01T01:36:48;9.30;99.90
27540;DHT22;15906;52.046;4.724;2023-04-01T01:39:16;9.40;99.90
27540;DHT22;15906;52.046;4.724;2023-04-01T01:41:43;9.40;99.90
27540;DHT22;15906;52.046;4.724;2023-04-01T01:44:12;9.30;99.90
27540;DHT22;15906;52.046;4.724;2023-04-01T01:46:41;9.30;99.90
27540;DHT22;15906;52.046;4.724;2023-04-01T01:49:09;9.30;99.90
27540;DHT22;15906;52.046;4.724;2023-04-01T01:51:36;9.40;99.90
27540;DHT22;15906;52.046;4.724;2023-04-01T01:54:01;9.30;99.90
27540;DHT22;15906;52.046;4.724;2023-04-01T01:56:29;9.40;99.90
27540;DHT22;15906;52.046;4.724;2023-04-01T01:59:02;9.40;99.90
27540;DHT22;15906;52.046;4.724;2023-04-01T02:01:31;9.30;99.90
27540;DHT22;15906;52.046;4.724;2023-04-01T02:03:59;9.30;99.90
27540;DHT22;15906;52.046;4.724;2023-04-01T02:06:27;9.40;99.90
27540;DHT22;15906;52.046;4.724;2023-04-01T02:08:57;9.40;99.90
27540;DHT22;15906;52.046;4.724;2023-04-01T02:11:32;9.30;99.90
27540;DHT22;15906;52.046;4.724;2023-04-01T02:14:43;9.40;99.90
27540;DHT22;15906;52.046;4.724;2023-04-01T02:17:10;9.30;99.90
27540;DHT22;15906;52.046;4.724;2023-04-01T02:19:39;9.30;99.90
27540;DHT22;15906;52.046;4.724;2023-04-01T02:22:12;9.30;99.90
27540;DHT22;15906;52.046;4.724;2023-04-01T02:24:40;9.30;99.90
27540;DHT22;15906;52.046;4.724;2023-04-01T02:27:06;9.30;99.90
27540;DHT22;15906;52.046;4.724;2023-04-01T02:29:32;9.40;99.90
27540;DHT22;15906;52.046;4.724;2023-04-01T02:31:58;9.40;99.90
27540;DHT22;15906;52.046;4.724;2023-04-01T02:34:24;9.40;99.90
27540;DHT22;15906;52.046;4.724;2023-04-01T02:36:50;9.30;99.90
27540;DHT22;15906;52.046;4.724;2023-04-01T02:39:17;9.40;99.90
27540;DHT22;15906;52.046;4.724;2023-04-01T02:41:44;9.30;99.90
27540;DHT22;15906;52.046;4.724;2023-04-01T02:44:11;9.30;99.90
27540;DHT22;15906;52.046;4.724;2023-04-01T02:46:37;9.30;99.90
27540;DHT22;15906;52.046;4.724;2023-04-01T02:49:03;9.40;99.90
27540;DHT22;15906;52.046;4.724;2023-04-01T02:51:28;9.40;99.90
27540;DHT22;15906;52.046;4.724;2023-04-01T02:53:54;9.30;99.90
27540;DHT22;15906;52.046;4.724;2023-04-01T02:56:20;9.40;99.90
27540;DHT22;15906;52.046;4.724;2023-04-01T02:58:46;9.40;99.90
27540;DHT22;15906;52.046;4.724;2023-04-01T03:01:12;9.40;99.90
27540;DHT22;15906;52.046;4.724;2023-04-01T03:03:38;9.30;99.90
27540;DHT22;15906;52.046;4.724;2023-04-01T03:06:12;9.40;99.90
27540;DHT22;15906;52.046;4.724;2023-04-01T03:08:38;9.40;99.90
27540;DHT22;15906;52.046;4.724;2023-04-01T03:11:04;9.50;99.90
27540;DHT22;15906;52.046;4.724;2023-04-01T03:13:30;9.50;99.90
27540;DHT22;15906;52.046;4.724;2023-04-01T03:15:56;9.40;99.90
27540;DHT22;15906;52.046;4.724;2023-04-01T03:18:21;9.50;99.90
27540;DHT22;15906;52.046;4.724;2023-04-01T03:20:47;9.50;99.90
27540;DHT22;15906;52.046;4.724;2023-04-01T03:23:13;9.50;99.90
27540;DHT22;15906;52.046;4.724;2023-04-01T03:25:38;9.50;99.90
27540;DHT22;15906;52.046;4.724;2023-04-01T03:28:04;9.50;99.90
27540;DHT22;15906;52.046;4.724;2023-04-01T03:30:30;9.50;99.90
27540;DHT22;15906;52.046;4.724;2023-04-01T03:32:57;9.40;99.90
27540;DHT22;15906;52.046;4.724;2023-04-01T03:35:23;9.60;99.90
27540;DHT22;15906;52.046;4.724;2023-04-01T03:37:50;9.50;99.90
27540;DHT22;15906;52.046;4.724;2023-04-01T03:40:16;9.50;99.90
27540;DHT22;15906;52.046;4.724;2023-04-01T03:42:42;9.50;99.90
27540;DHT22;15906;52.046;4.724;2023-04-01T03:45:07;9.50;99.90
27540;DHT22;15906;52.046;4.724;2023-04-01T03:47:33;9.50;99.90
27540;DHT22;15906;52.046;4.724;2023-04-01T03:49:59;9.50;99.90
27540;DHT22;15906;52.046;4.724;2023-04-01T03:52:24;9.50;99.90
27540;DHT22;15906;52.046;4.724;2023-04-01T03:54:50;9.60;99.90
27540;DHT22;15906;52.046;4.724;2023-04-01T03:57:15;9.70;99.90
27540;DHT22;15906;52.046;4.724;2023-04-01T03:59:41;9.70;99.90
27540;DHT22;15906;52.046;4.724;2023-04-01T04:02:07;9.60;99.90
27540;DHT22;15906;52.046;4.724;2023-04-01T04:04:32;9.60;99.90
27540;DHT22;15906;52.046;4.724;2023-04-01T04:06:58;9.60;99.90
27540;DHT22;15906;52.046;4.724;2023-04-01T04:09:23;9.60;99.90
27540;DHT22;15906;52.046;4.724;2023-04-01T04:11:49;9.60;99.90
27540;DHT22;15906;52.046;4.724;2023-04-01T04:14:15;9.50;99.90
27540;DHT22;15906;52.046;4.724;2023-04-01T04:16:40;9.60;99.90
27540;DHT22;15906;52.046;4.724;2023-04-01T04:19:06;9.60;99.90
27540;DHT22;15906;52.046;4.724;2023-04-01T04:21:32;9.60;99.90
27540;DHT22;15906;52.046;4.724;2023-04-01T04:24:01;9.60;99.90
27540;DHT22;15906;52.046;4.724;2023-04-01T04:26:27;9.60;99.90
27540;DHT22;15906;52.046;4.724;2023-04-01T04:28:54;9.60;99.90
27540;DHT22;15906;52.046;4.724;2023-04-01T04:31:21;9.60;99.90
27540;DHT22;15906;52.046;4.724;2023-04-01T04:33:46;9.60;99.90
27540;DHT22;15906;52.046;4.724;2023-04-01T04:36:13;9.70;99.90
27540;DHT22;15906;52.046;4.724;2023-04-01T04:38:38;9.60;99.90
27540;DHT22;15906;52.046;4.724;2023-04-01T04:41:15;9.50;99.90
27540;DHT22;15906;52.046;4.724;2023-04-01T04:43:42;9.50;99.90
27540;DHT22;15906;52.046;4.724;2023-04-01T04:46:13;9.50;99.90
27540;DHT22;15906;52.046;4.724;2023-04-01T04:48:39;9.60;99.90
27540;DHT22;15906;52.046;4.724;2023-04-01T04:51:05;9.60;99.90
27540;DHT22;15906;52.046;4.724;2023-04-01T04:53:30;9.50;99.90
27540;DHT22;15906;52.046;4.724;2023-04-01T04:55:56;9.50;99.90
27540;DHT22;15906;52.046;4.724;2023-04-01T04:58:22;9.50;99.90
27540;DHT22;15906;52.046;4.724;2023-04-01T05:00:47;9.50;99.90
27540;DHT22;15906;52.046;4.724;2023-04-01T05:03:13;9.40;99.90
27540;DHT22;15906;52.046;4.724;2023-04-01T05:05:39;9.50;99.90
27540;DHT22;15906;52.046;4.724;2023-04-01T05:08:05;9.40;99.90
27540;DHT22;15906;52.046;4.724;2023-04-01T05:10:31;9.30;99.90
27540;DHT22;15906;52.046;4.724;2023-04-01T05:12:57;9.40;99.90
27540;DHT22;15906;52.046;4.724;2023-04-01T05:15:23;9.40;99.90
27540;DHT22;15906;52.046;4.724;2023-04-01T05:17:49;9.40;99.90
27540;DHT22;15906;52.046;4.724;2023-04-01T05:20:15;9.40;99.90
27540;DHT22;15906;52.046;4.724;2023-04-01T05:22:41;9.40;99.90
27540;DHT22;15906;52.046;4.724;2023-04-01T05:25:07;9.40;99.90
27540;DHT22;15906;52.046;4.724;2023-04-01T05:27:32;9.40;99.90
27540;DHT22;15906;52.046;4.724;2023-04-01T05:29:58;9.40;99.90
27540;DHT22;15906;52.046;4.724;2023-04-01T05:32:24;9.40;99.90
27540;DHT22;15906;52.046;4.724;2023-04-01T05:34:53;9.40;99.90
27540;DHT22;15906;52.046;4.724;2023-04-01T05:37:19;9.40;99.90
27540;DHT22;15906;52.046;4.724;2023-04-01T05:39:45;9.40;99.90
27540;DHT22;15906;52.046;4.724;2023-04-01T05:42:11;9.40;99.90
27540;DHT22;15906;52.046;4.724;2023-04-01T05:44:36;9.40;99.90
27540;DHT22;15906;52.046;4.724;2023-04-01T05:47:03;9.40;99.90
27540;DHT22;15906;52.046;4.724;2023-04-01T05:49:29;9.40;99.90
27540;DHT22;15906;52.046;4.724;2023-04-01T05:51:55;9.40;99.90
27540;DHT22;15906;52.046;4.724;2023-04-01T05:54:21;9.40;99.90
27540;DHT22;15906;52.046;4.724;2023-04-01T05:56:47;9.40;99.90
27540;DHT22;15906;52.046;4.724;2023-04-01T05:59:13;9.40;99.90
27540;DHT22;15906;52.046;4.724;2023-04-01T06:01:39;9.40;99.90
27540;DHT22;15906;52.046;4.724;2023-04-01T06:04:04;9.40;99.90
27540;DHT22;15906;52.046;4.724;2023-04-01T06:06:31;9.40;99.90
27540;DHT22;15906;52.046;4.724;2023-04-01T06:31:10;9.50;99.90
27540;DHT22;15906;52.046;4.724;2023-04-01T06:42:23;9.30;99.90
27540;DHT22;15906;52.046;4.724;2023-04-01T06:48:07;9.40;99.90
27540;DHT22;15906;52.046;4.724;2023-04-01T06:50:44;9.30;99.90
27540;DHT22;15906;52.046;4.724;2023-04-01T06:53:39;9.40;99.90
27540;DHT22;15906;52.046;4.724;2023-04-01T06:56:11;9.30;99.90
27540;DHT22;15906;52.046;4.724;2023-04-01T06:59:24;9.30;99.90
27540;DHT22;15906;52.046;4.724;2023-04-01T07:01:35;9.30;99.90
27540;DHT22;15906;52.046;4.724;2023-04-01T07:04:09;9.40;99.90
27540;DHT22;15906;52.046;4.724;2023-04-01T07:06:45;9.40;99.90
27540;DHT22;15906;52.046;4.724;2023-04-01T07:09:19;9.40;99.90
27540;DHT22;15906;52.046;4.724;2023-04-01T07:11:46;9.40;99.90
27540;DHT22;15906;52.046;4.724;2023-04-01T07:14:22;9.30;99.90
27540;DHT22;15906;52.046;4.724;2023-04-01T07:17:00;9.30;99.90
27540;DHT22;15906;52.046;4.724;2023-04-01T07:19:36;9.30;99.90
27540;DHT22;15906;52.046;4.724;2023-04-01T07:22:38;9.40;99.90
27540;DHT22;15906;52.046;4.724;2023-04-01T07:25:15;9.30;99.90
27540;DHT22;15906;52.046;4.724;2023-04-01T07:27:45;9.30;99.90
27540;DHT22;15906;52.046;4.724;2023-04-01T07:30:16;9.40;99.90
27540;DHT22;15906;52.046;4.724;2023-04-01T07:32:47;9.50;99.90
27540;DHT22;15906;52.046;4.724;2023-04-01T07:38:22;9.60;99.90
27540;DHT22;15906;52.046;4.724;2023-04-01T07:40:58;9.60;99.90
27540;DHT22;15906;52.046;4.724;2023-04-01T07:43:57;9.50;99.90
27540;DHT22;15906;52.046;4.724;2023-04-01T07:49:33;9.60;99.90
27540;DHT22;15906;52.046;4.724;2023-04-01T07:52:12;9.50;99.90
27540;DHT22;15906;52.046;4.724;2023-04-01T07:54:53;9.60;99.90
27540;DHT22;15906;52.046;4.724;2023-04-01T08:00:27;9.60;99.90
27540;DHT22;15906;52.046;4.724;2023-04-01T08:03:14;9.70;99.90
27540;DHT22;15906;52.046;4.724;2023-04-01T08:10:49;9.70;99.90
27540;DHT22;15906;52.046;4.724;2023-04-01T08:16:17;9.70;99.90
27540;DHT22;15906;52.046;4.724;2023-04-01T08:21:52;9.80;99.90
27540;DHT22;15906;52.046;4.724;2023-04-01T08:24:35;9.70;99.90
27540;DHT22;15906;52.046;4.724;2023-04-01T08:27:06;9.60;99.90
27540;DHT22;15906;52.046;4.724;2023-04-01T08:29:48;9.60;99.90
27540;DHT22;15906;52.046;4.724;2023-04-01T08:32:23;9.70;99.90
27540;DHT22;15906;52.046;4.724;2023-04-01T08:35:00;9.70;99.90
27540;DHT22;15906;52.046;4.724;2023-04-01T08:37:32;9.70;99.90
27540;DHT22;15906;52.046;4.724;2023-04-01T08:43:36;9.70;99.90
27540;DHT22;15906;52.046;4.724;2023-04-01T09:00:43;9.70;99.90
27540;DHT22;15906;52.046;4.724;2023-04-01T09:11:33;10.10;99.90
27540;DHT22;15906;52.046;4.724;2023-04-01T09:14:20;10.10;99.90
27540;DHT22;15906;52.046;4.724;2023-04-01T09:17:19;10.00;99.90
27540;DHT22;15906;52.046;4.724;2023-04-01T09:22:50;10.00;99.90
27540;DHT22;15906;52.046;4.724;2023-04-01T09:28:07;10.00;99.90
27540;DHT22;15906;52.046;4.724;2023-04-01T09:36:44;10.00;99.90
27540;DHT22;15906;52.046;4.724;2023-04-01T09:39:19;10.00;99.90
27540;DHT22;15906;52.046;4.724;2023-04-01T09:44:36;10.10;99.90
27540;DHT22;15906;52.046;4.724;2023-04-01T09:47:36;10.10;99.90
27540;DHT22;15906;52.046;4.724;2023-04-01T09:50:33;10.10;99.90
27540;DHT22;15906;52.046;4.724;2023-04-01T09:53:46;10.10;99.90
27540;DHT22;15906;52.046;4.724;2023-04-01T09:59:08;10.20;99.90
27540;DHT22;15906;52.046;4.724;2023-04-01T10:10:53;10.20;99.90
27540;DHT22;15906;52.046;4.724;2023-04-01T10:16:39;10.40;99.90
27540;DHT22;15906;52.046;4.724;2023-04-01T10:19:29;10.30;99.90
27540;DHT22;15906;52.046;4.724;2023-04-01T10:42:06;10.50;99.90
27540;DHT22;15906;52.046;4.724;2023-04-01T10:44:51;10.40;99.90
27540;DHT22;15906;52.046;4.724;2023-04-01T11:01:20;10.30;99.90
27540;DHT22;15906;52.046;4.724;2023-04-01T11:24:57;10.50;99.90
27540;DHT22;15906;52.046;4.724;2023-04-01T11:30:12;10.60;99.90
27540;DHT22;15906;52.046;4.724;2023-04-01T11:33:26;10.60;99.90
27540;DHT22;15906;52.046;4.724;2023-04-01T11:36:02;10.60;99.90
27540;DHT22;15906;52.046;4.724;2023-04-01T11:55:10;10.90;99.90
27540;DHT22;15906;52.046;4.724;2023-04-01T11:58:08;11.00;99.90
27540;DHT22;15906;52.046;4.724;2023-04-01T12:01:01;11.00;99.90
27540;DHT22;15906;52.046;4.724;2023-04-01T12:03:37;11.00;99.90
27540;DHT22;15906;52.046;4.724;2023-04-01T12:08:51;10.80;99.90
27540;DHT22;15906;52.046;4.724;2023-04-01T12:14:19;11.00;99.90
27540;DHT22;15906;52.046;4.724;2023-04-01T12:19:48;11.20;99.90
27540;DHT22;15906;52.046;4.724;2023-04-01T12:27:44;11.20;99.90
27540;DHT22;15906;52.046;4.724;2023-04-01T12:30:16;11.50;99.90
27540;DHT22;15906;52.046;4.724;2023-04-01T12:35:19;11.40;99.90
27540;DHT22;15906;52.046;4.724;2023-04-01T12:38:13;11.50;99.90
27540;DHT22;15906;52.046;4.724;2023-04-01T12:43:41;11.40;99.90
27540;DHT22;15906;52.046;4.724;2023-04-01T12:46:34;11.30;99.90
27540;DHT22;15906;52.046;4.724;2023-04-01T12:51:54;11.40;99.90
27540;DHT22;15906;52.046;4.724;2023-04-01T12:59:35;11.50;99.90
27540;DHT22;15906;52.046;4.724;2023-04-01T13:02:13;11.50;99.90
27540;DHT22;15906;52.046;4.724;2023-04-01T13:08:13;11.40;99.90
27540;DHT22;15906;52.046;4.724;2023-04-01T13:11:02;11.30;99.90
27540;DHT22;15906;52.046;4.724;2023-04-01T13:17:07;11.10;99.90
27540;DHT22;15906;52.046;4.724;2023-04-01T13:25:02;11.10;99.90
27540;DHT22;15906;52.046;4.724;2023-04-01T13:27:38;11.00;99.90
27540;DHT22;15906;52.046;4.724;2023-04-01T13:36:13;11.00;99.90
27540;DHT22;15906;52.046;4.724;2023-04-01T13:38:58;11.00;99.90
27540;DHT22;15906;52.046;4.724;2023-04-01T13:41:55;11.00;99.90
27540;DHT22;15906;52.046;4.724;2023-04-01T13:44:31;10.90;99.90
27540;DHT22;15906;52.046;4.724;2023-04-01T14:08:45;11.20;99.90
27540;DHT22;15906;52.046;4.724;2023-04-01T14:11:32;11.20;99.90
27540;DHT22;15906;52.046;4.724;2023-04-01T14:17:02;11.10;99.90
27540;DHT22;15906;52.046;4.724;2023-04-01T14:19:56;11.00;99.90
27540;DHT22;15906;52.046;4.724;2023-04-01T14:28:09;11.10;99.90
27540;DHT22;15906;52.046;4.724;2023-04-01T14:30:51;11.10;99.90
27540;DHT22;15906;52.046;4.724;2023-04-01T14:33:41;11.20;99.90
27540;DHT22;15906;52.046;4.724;2023-04-01T14:47:43;11.40;99.90
27540;DHT22;15906;52.046;4.724;2023-04-01T14:50:14;11.30;99.90
27540;DHT22;15906;52.046;4.724;2023-04-01T14:53:13;11.30;99.90
27540;DHT22;15906;52.046;4.724;2023-04-01T14:58:12;11.20;99.90
27540;DHT22;15906;52.046;4.724;2023-04-01T15:01:11;11.20;99.90
27540;DHT22;15906;52.046;4.724;2023-04-01T15:12:29;11.20;99.90
27540;DHT22;15906;52.046;4.724;2023-04-01T15:20:15;11.00;99.90
27540;DHT22;15906;52.046;4.724;2023-04-01T15:40:15;10.80;99.90
27540;DHT22;15906;52.046;4.724;2023-04-01T15:45:30;10.90;99.90
27540;DHT22;15906;52.046;4.724;2023-04-01T15:51:01;10.80;99.90
27540;DHT22;15906;52.046;4.724;2023-04-01T15:56:28;10.80;99.90
27540;DHT22;15906;52.046;4.724;2023-04-01T15:59:01;10.80;99.90
27540;DHT22;15906;52.046;4.724;2023-04-01T16:02:22;10.80;99.90
27540;DHT22;15906;52.046;4.724;2023-04-01T16:04:59;10.80;99.90
27540;DHT22;15906;52.046;4.724;2023-04-01T16:30:22;10.40;99.90
27540;DHT22;15906;52.046;4.724;2023-04-01T16:33:02;10.30;99.90
27540;DHT22;15906;52.046;4.724;2023-04-01T16:38:31;10.40;99.90
27540;DHT22;15906;52.046;4.724;2023-04-01T16:41:19;10.40;99.90
27540;DHT22;15906;52.046;4.724;2023-04-01T16:43:49;10.30;99.90
27540;DHT22;15906;52.046;4.724;2023-04-01T16:46:43;10.40;99.90
27540;DHT22;15906;52.046;4.724;2023-04-01T16:51:54;10.40;99.90
27540;DHT22;15906;52.046;4.724;2023-04-01T16:54:31;10.30;99.90
27540;DHT22;15906;52.046;4.724;2023-04-01T16:57:17;10.30;99.90
27540;DHT22;15906;52.046;4.724;2023-04-01T17:02:23;10.30;99.90
27540;DHT22;15906;52.046;4.724;2023-04-01T17:05:09;10.20;99.90
27540;DHT22;15906;52.046;4.724;2023-04-01T17:08:17;10.20;99.90
27540;DHT22;15906;52.046;4.724;2023-04-01T17:11:16;10.20;99.90
27540;DHT22;15906;52.046;4.724;2023-04-01T17:27:45;10.00;99.90
27540;DHT22;15906;52.046;4.724;2023-04-01T17:35:16;9.90;99.90
27540;DHT22;15906;52.046;4.724;2023-04-01T17:41:00;9.90;99.90
27540;DHT22;15906;52.046;4.724;2023-04-01T17:43:53;9.90;99.90
27540;DHT22;15906;52.046;4.724;2023-04-01T17:57:56;9.80;99.90
27540;DHT22;15906;52.046;4.724;2023-04-01T18:03:12;9.70;99.90
27540;DHT22;15906;52.046;4.724;2023-04-01T18:11:31;9.60;99.90
27540;DHT22;15906;52.046;4.724;2023-04-01T18:19:06;9.60;99.90
27540;DHT22;15906;52.046;4.724;2023-04-01T18:21:55;9.60;99.90
27540;DHT22;15906;52.046;4.724;2023-04-01T18:27:16;9.50;99.90
27540;DHT22;15906;52.046;4.724;2023-04-01T18:38:04;9.40;99.90
27540;DHT22;15906;52.046;4.724;2023-04-01T18:40:35;9.40;99.90
27540;DHT22;15906;52.046;4.724;2023-04-01T18:45:59;9.40;99.90
27540;DHT22;15906;52.046;4.724;2023-04-01T18:48:52;9.40;99.90
27540;DHT22;15906;52.046;4.724;2023-04-01T18:51:44;9.40;99.90
27540;DHT22;15906;52.046;4.724;2023-04-01T18:54:26;9.30;99.90
27540;DHT22;15906;52.046;4.724;2023-04-01T18:57:16;9.40;99.90
27540;DHT22;15906;52.046;4.724;2023-04-01T18:59:46;9.30;99.90
27540;DHT22;15906;52.046;4.724;2023-04-01T19:02:33;9.30;99.90
27540;DHT22;15906;52.046;4.724;2023-04-01T19:05:07;9.30;99.90
27540;DHT22;15906;52.046;4.724;2023-04-01T19:10:27;9.30;99.90
27540;DHT22;15906;52.046;4.724;2023-04-01T19:13:19;9.30;99.90
27540;DHT22;15906;52.046;4.724;2023-04-01T19:15:57;9.30;99.90
27540;DHT22;15906;52.046;4.724;2023-04-01T19:18:37;9.30;99.90
27540;DHT22;15906;52.046;4.724;2023-04-01T19:21:15;9.20;99.90
27540;DHT22;15906;52.046;4.724;2023-04-01T19:27:29;9.20;99.90
27540;DHT22;15906;52.046;4.724;2023-04-01T19:30:07;9.20;99.90
27540;DHT22;15906;52.046;4.724;2023-04-01T19:32:55;9.20;99.90
27540;DHT22;15906;52.046;4.724;2023-04-01T19:38:04;9.10;99.90
27540;DHT22;15906;52.046;4.724;2023-04-01T19:43:30;9.00;99.90
27540;DHT22;15906;52.046;4.724;2023-04-01T19:46:19;9.00;99.90
27540;DHT22;15906;52.046;4.724;2023-04-01T19:48:59;8.90;99.90
27540;DHT22;15906;52.046;4.724;2023-04-01T19:51:39;8.90;99.90
27540;DHT22;15906;52.046;4.724;2023-04-01T19:54:34;8.90;99.90
27540;DHT22;15906;52.046;4.724;2023-04-01T19:59:49;8.80;99.90
27540;DHT22;15906;52.046;4.724;2023-04-01T20:02:37;8.80;99.90
27540;DHT22;15906;52.046;4.724;2023-04-01T20:07:53;8.70;99.90
27540;DHT22;15906;52.046;4.724;2023-04-01T20:10:35;8.70;99.90
27540;DHT22;15906;52.046;4.724;2023-04-01T20:16:11;8.60;99.90
27540;DHT22;15906;52.046;4.724;2023-04-01T20:18:59;8.60;99.90
27540;DHT22;15906;52.046;4.724;2023-04-01T20:21:46;8.60;99.90
27540;DHT22;15906;52.046;4.724;2023-04-01T20:27:17;8.60;99.90
27540;DHT22;15906;52.046;4.724;2023-04-01T20:32:45;8.60;99.90
27540;DHT22;15906;52.046;4.724;2023-04-01T20:35:24;8.70;99.90
27540;DHT22;15906;52.046;4.724;2023-04-01T20:40:40;8.60;99.90
27540;DHT22;15906;52.046;4.724;2023-04-01T20:48:40;8.50;99.90
27540;DHT22;15906;52.046;4.724;2023-04-01T20:51:12;8.40;99.90
27540;DHT22;15906;52.046;4.724;2023-04-01T20:54:20;8.50;99.90
27540;DHT22;15906;52.046;4.724;2023-04-01T20:56:52;8.30;99.90
27540;DHT22;15906;52.046;4.724;2023-04-01T21:08:13;8.40;99.90
27540;DHT22;15906;52.046;4.724;2023-04-01T21:11:04;8.30;99.90
27540;DHT22;15906;52.046;4.724;2023-04-01T21:24:52;8.20;99.90
27540;DHT22;15906;52.046;4.724;2023-04-01T21:27:34;8.10;99.90
27540;DHT22;15906;52.046;4.724;2023-04-01T21:36:53;8.10;99.90
27540;DHT22;15906;52.046;4.724;2023-04-01T22:04:32;7.90;99.90
27540;DHT22;15906;52.046;4.724;2023-04-01T22:07:20;7.80;99.90
27540;DHT22;15906;52.046;4.724;2023-04-01T22:09:59;7.80;99.90
27540;DHT22;15906;52.046;4.724;2023-04-01T22:12:36;7.80;99.90
27540;DHT22;15906;52.046;4.724;2023-04-01T22:17:54;7.80;99.90
27540;DHT22;15906;52.046;4.724;2023-04-01T22:26:00;7.70;99.90
27540;DHT22;15906;52.046;4.724;2023-04-01T22:28:34;7.70;99.90
27540;DHT22;15906;52.046;4.724;2023-04-01T22:31:07;7.70;99.90
27540;DHT22;15906;52.046;4.724;2023-04-01T22:44:22;7.60;99.90
27540;DHT22;15906;52.046;4.724;2023-04-01T22:49:52;7.60;99.90
27540;DHT22;15906;52.046;4.724;2023-04-01T22:52:33;7.60;99.90
27540;DHT22;15906;52.046;4.724;2023-04-01T22:55:04;7.60;99.90
27540;DHT22;15906;52.046;4.724;2023-04-01T23:00:54;7.50;99.90
27540;DHT22;15906;52.046;4.724;2023-04-01T23:03:32;7.40;99.90
27540;DHT22;15906;52.046;4.724;2023-04-01T23:06:03;7.40;99.90
27540;DHT22;15906;52.046;4.724;2023-04-01T23:09:01;7.40;99.90
27540;DHT22;15906;52.046;4.724;2023-04-01T23:11:43;7.40;99.90
27540;DHT22;15906;52.046;4.724;2023-04-01T23:17:28;7.40;99.90
27540;DHT22;15906;52.046;4.724;2023-04-01T23:22:32;7.40;99.90
27540;DHT22;15906;52.046;4.724;2023-04-01T23:25:15;7.40;99.90
27540;DHT22;15906;52.046;4.724;2023-04-01T23:30:47;7.30;99.90
27540;DHT22;15906;52.046;4.724;2023-04-01T23:33:20;7.30;99.90
27540;DHT22;15906;52.046;4.724;2023-04-01T23:35:58;7.20;99.90
27540;DHT22;15906;52.046;4.724;2023-04-01T23:38:36;7.30;99.90
27540;DHT22;15906;52.046;4.724;2023-04-01T23:41:03;7.30;99.90
27540;DHT22;15906;52.046;4.724;2023-04-01T23:43:32;7.30;99.90
27540;DHT22;15906;52.046;4.724;2023-04-01T23:46:00;7.30;99.90
27540;DHT22;15906;52.046;4.724;2023-04-01T23:48:33;7.30;99.90
27540;DHT22;15906;52.046;4.724;2023-04-01T23:51:01;7.30;99.90
27540;DHT22;15906;52.046;4.724;2023-04-01T23:53:30;7.30;99.90
27540;DHT22;15906;52.046;4.724;2023-04-01T23:55:58;7.30;99.90
27540;DHT22;15906;52.046;4.724;2023-04-01T23:58:48;7.20;99.90
